ENZV/SVG METAR and TAF weather

Enter ICAO airport designator
Station Type Date Time Source
ENZV METAR 2020/07/04 09:20 UTC NOAA

ENZV 040920Z 28006KT 9999 SCT023 BKN048 16/09 Q1002 NOSIG


Station Type Date Time Source
ENZV Decoded METAR 2020/07/04 09:20 UTC NOAA

Stavanger / Sola, Norway (ENZV) 58-53N 005-38E 9M
Jul 04, 2020 - 05:20 AM EDT / 2020.07.04 0920 UTC
Wind: from the W (280 degrees) at 7 MPH (6 KT):0
Visibility: greater than 7 mile(s):0
Sky conditions: mostly cloudy
Temperature: 60 F (16 C)
Dew Point: 48 F (9 C)
Relative Humidity: 63%
Pressure (altimeter): 29.59 in. Hg (1002 hPa)
ob: ENZV 040920Z 28006KT 9999 SCT023 BKN048 16/09 Q1002 NOSIG
cycle: 9

Station Type Date Time Source
ENZV TAF 2020/07/04 06:57 UTC NOAA

TAF ENZV 040500Z 0406/0506 02005KT 9999 -RA FEW008 BKN040
BECMG 0410/0412 28010KT
BECMG 0503/0506 15010KT

Example: see airport list